sensor_id;sensor_type;location;lat;lon;timestamp;P1;durP1;ratioP1;P2;durP2;ratioP2
6953;SDS011;3516;47.980;8.808;2023-02-28T04:58:58;6.82;;;6.13;;
6953;SDS011;3516;47.980;8.808;2023-02-28T05:01:26;6.82;;;5.82;;
6953;SDS011;3516;47.980;8.808;2023-02-28T05:03:55;10.82;;;6.15;;
6953;SDS011;3516;47.980;8.808;2023-02-28T05:06:23;8.23;;;5.03;;
6953;SDS011;3516;47.980;8.808;2023-02-28T05:08:51;6.53;;;5.95;;
6953;SDS011;3516;47.980;8.808;2023-02-28T05:11:19;6.07;;;5.47;;
6953;SDS011;3516;47.980;8.808;2023-02-28T05:13:47;9.07;;;6.45;;
6953;SDS011;3516;47.980;8.808;2023-02-28T05:16:16;6.55;;;5.95;;
6953;SDS011;3516;47.980;8.808;2023-02-28T05:18:43;8.57;;;6.35;;
6953;SDS011;3516;47.980;8.808;2023-02-28T05:21:22;6.57;;;5.88;;
6953;SDS011;3516;47.980;8.808;2023-02-28T05:23:55;8.73;;;5.97;;
6953;SDS011;3516;47.980;8.808;2023-02-28T05:26:22;8.38;;;6.38;;
6953;SDS011;3516;47.980;8.808;2023-02-28T05:28:49;8.85;;;6.28;;
6953;SDS011;3516;47.980;8.808;2023-02-28T05:31:17;7.55;;;6.07;;
6953;SDS011;3516;47.980;8.808;2023-02-28T05:33:44;7.45;;;6.10;;
6953;SDS011;3516;47.980;8.808;2023-02-28T05:36:11;7.70;;;6.07;;
6953;SDS011;3516;47.980;8.808;2023-02-28T05:38:38;9.40;;;6.90;;
6953;SDS011;3516;47.980;8.808;2023-02-28T05:41:05;9.38;;;6.82;;
6953;SDS011;3516;47.980;8.808;2023-02-28T05:43:33;10.35;;;6.90;;
6953;SDS011;3516;47.980;8.808;2023-02-28T05:46:01;7.28;;;6.28;;
6953;SDS011;3516;47.980;8.808;2023-02-28T05:48:30;7.53;;;6.38;;
6953;SDS011;3516;47.980;8.808;2023-02-28T05:50:57;7.88;;;6.85;;
6953;SDS011;3516;47.980;8.808;2023-02-28T05:53:24;6.85;;;6.15;;
6953;SDS011;3516;47.980;8.808;2023-02-28T05:55:51;7.18;;;6.47;;
6953;SDS011;3516;47.980;8.808;2023-02-28T05:58:18;8.32;;;6.57;;
6953;SDS011;3516;47.980;8.808;2023-02-28T06:00:44;10.43;;;6.97;;
6953;SDS011;3516;47.980;8.808;2023-02-28T06:03:11;7.10;;;6.40;;
6953;SDS011;3516;47.980;8.808;2023-02-28T06:05:39;7.30;;;6.63;;
6953;SDS011;3516;47.980;8.808;2023-02-28T06:08:06;9.30;;;6.65;;
6953;SDS011;3516;47.980;8.808;2023-02-28T06:10:33;8.93;;;6.80;;
6953;SDS011;3516;47.980;8.808;2023-02-28T06:13:00;6.97;;;5.88;;
6953;SDS011;3516;47.980;8.808;2023-02-28T06:15:27;7.20;;;6.32;;
6953;SDS011;3516;47.980;8.808;2023-02-28T06:17:55;7.60;;;6.50;;
6953;SDS011;3516;47.980;8.808;2023-02-28T06:20:22;9.63;;;6.18;;
6953;SDS011;3516;47.980;8.808;2023-02-28T06:22:51;9.18;;;6.85;;
6953;SDS011;3516;47.980;8.808;2023-02-28T06:25:19;9.43;;;6.10;;
6953;SDS011;3516;47.980;8.808;2023-02-28T16:10:14;20.75;;;14.25;;
6953;SDS011;3516;47.980;8.808;2023-02-28T16:12:42;17.75;;;12.68;;
6953;SDS011;3516;47.980;8.808;2023-02-28T16:15:17;16.70;;;11.85;;
6953;SDS011;3516;47.980;8.808;2023-02-28T16:17:45;13.65;;;11.18;;
6953;SDS011;3516;47.980;8.808;2023-02-28T16:20:13;18.98;;;12.18;;
6953;SDS011;3516;47.980;8.808;2023-02-28T16:22:40;17.90;;;11.68;;
6953;SDS011;3516;47.980;8.808;2023-02-28T16:25:08;14.77;;;11.15;;
6953;SDS011;3516;47.980;8.808;2023-02-28T16:27:36;16.70;;;11.93;;
6953;SDS011;3516;47.980;8.808;2023-02-28T16:30:04;20.88;;;11.52;;
6953;SDS011;3516;47.980;8.808;2023-02-28T16:32:33;15.05;;;11.30;;
6953;SDS011;3516;47.980;8.808;2023-02-28T16:35:01;16.08;;;11.70;;
6953;SDS011;3516;47.980;8.808;2023-02-28T16:37:28;16.77;;;11.50;;
6953;SDS011;3516;47.980;8.808;2023-02-28T16:39:55;16.25;;;10.90;;
6953;SDS011;3516;47.980;8.808;2023-02-28T16:42:23;16.40;;;11.43;;
6953;SDS011;3516;47.980;8.808;2023-02-28T16:44:52;16.63;;;11.63;;
6953;SDS011;3516;47.980;8.808;2023-02-28T16:47:20;14.40;;;11.93;;
6953;SDS011;3516;47.980;8.808;2023-02-28T16:49:47;14.65;;;12.02;;
6953;SDS011;3516;47.980;8.808;2023-02-28T16:52:14;18.88;;;12.05;;
6953;SDS011;3516;47.980;8.808;2023-02-28T16:54:41;18.65;;;12.40;;
6953;SDS011;3516;47.980;8.808;2023-02-28T16:57:12;18.98;;;13.07;;
6953;SDS011;3516;47.980;8.808;2023-02-28T16:59:42;16.42;;;11.27;;
6953;SDS011;3516;47.980;8.808;2023-02-28T17:02:11;15.18;;;11.77;;
6953;SDS011;3516;47.980;8.808;2023-02-28T17:04:39;16.23;;;11.93;;
6953;SDS011;3516;47.980;8.808;2023-02-28T17:07:08;17.50;;;11.90;;
6953;SDS011;3516;47.980;8.808;2023-02-28T17:09:35;15.50;;;12.13;;
6953;SDS011;3516;47.980;8.808;2023-02-28T17:12:02;15.77;;;12.05;;
6953;SDS011;3516;47.980;8.808;2023-02-28T17:14:30;20.70;;;12.32;;
6953;SDS011;3516;47.980;8.808;2023-02-28T17:16:57;20.15;;;13.65;;
6953;SDS011;3516;47.980;8.808;2023-02-28T17:19:26;19.33;;;12.50;;
6953;SDS011;3516;47.980;8.808;2023-02-28T17:21:53;17.92;;;13.00;;
6953;SDS011;3516;47.980;8.808;2023-02-28T17:24:21;16.63;;;11.60;;
6953;SDS011;3516;47.980;8.808;2023-02-28T17:26:48;19.60;;;12.52;;
6953;SDS011;3516;47.980;8.808;2023-02-28T17:29:16;20.27;;;11.55;;
6953;SDS011;3516;47.980;8.808;2023-02-28T17:31:43;18.52;;;11.45;;
6953;SDS011;3516;47.980;8.808;2023-02-28T17:34:10;19.48;;;12.18;;
6953;SDS011;3516;47.980;8.808;2023-02-28T17:36:44;16.15;;;11.50;;
6953;SDS011;3516;47.980;8.808;2023-02-28T17:39:12;22.00;;;12.13;;
6953;SDS011;3516;47.980;8.808;2023-02-28T17:41:39;21.95;;;11.75;;
6953;SDS011;3516;47.980;8.808;2023-02-28T17:44:07;14.98;;;11.57;;
6953;SDS011;3516;47.980;8.808;2023-02-28T17:46:34;18.40;;;11.75;;
6953;SDS011;3516;47.980;8.808;2023-02-28T17:49:01;18.48;;;12.48;;
6953;SDS011;3516;47.980;8.808;2023-02-28T17:51:28;18.23;;;12.35;;
6953;SDS011;3516;47.980;8.808;2023-02-28T17:53:56;18.50;;;12.93;;
6953;SDS011;3516;47.980;8.808;2023-02-28T17:56:24;17.83;;;11.77;;
6953;SDS011;3516;47.980;8.808;2023-02-28T17:58:52;23.35;;;13.38;;
6953;SDS011;3516;47.980;8.808;2023-02-28T18:01:20;19.45;;;12.25;;
6953;SDS011;3516;47.980;8.808;2023-02-28T18:03:47;15.68;;;11.85;;
6953;SDS011;3516;47.980;8.808;2023-02-28T18:06:15;19.35;;;12.15;;
6953;SDS011;3516;47.980;8.808;2023-02-28T18:08:43;21.92;;;13.57;;
6953;SDS011;3516;47.980;8.808;2023-02-28T18:11:11;25.85;;;16.88;;
6953;SDS011;3516;47.980;8.808;2023-02-28T18:13:43;17.35;;;11.85;;
6953;SDS011;3516;47.980;8.808;2023-02-28T18:16:11;17.30;;;12.43;;
6953;SDS011;3516;47.980;8.808;2023-02-28T18:18:39;18.58;;;12.65;;
6953;SDS011;3516;47.980;8.808;2023-02-28T18:21:07;16.60;;;11.82;;
6953;SDS011;3516;47.980;8.808;2023-02-28T18:23:35;18.33;;;13.18;;
6953;SDS011;3516;47.980;8.808;2023-02-28T18:26:05;18.40;;;12.95;;
6953;SDS011;3516;47.980;8.808;2023-02-28T18:28:34;18.52;;;12.55;;
6953;SDS011;3516;47.980;8.808;2023-02-28T18:31:05;19.73;;;13.32;;
6953;SDS011;3516;47.980;8.808;2023-02-28T18:33:32;21.17;;;13.77;;
6953;SDS011;3516;47.980;8.808;2023-02-28T18:35:59;22.00;;;13.30;;
6953;SDS011;3516;47.980;8.808;2023-02-28T18:38:26;21.02;;;14.27;;
6953;SDS011;3516;47.980;8.808;2023-02-28T18:40:54;24.88;;;14.10;;
6953;SDS011;3516;47.980;8.808;2023-02-28T18:43:23;21.15;;;13.15;;
6953;SDS011;3516;47.980;8.808;2023-02-28T18:45:51;25.98;;;14.40;;
6953;SDS011;3516;47.980;8.808;2023-02-28T18:48:18;27.27;;;15.77;;
6953;SDS011;3516;47.980;8.808;2023-02-28T18:50:47;39.40;;;17.33;;
6953;SDS011;3516;47.980;8.808;2023-02-28T18:53:14;36.13;;;16.42;;
6953;SDS011;3516;47.980;8.808;2023-02-28T18:55:42;35.65;;;16.95;;
6953;SDS011;3516;47.980;8.808;2023-02-28T18:58:09;28.33;;;16.20;;
6953;SDS011;3516;47.980;8.808;2023-02-28T19:00:36;30.52;;;16.40;;
6953;SDS011;3516;47.980;8.808;2023-02-28T19:03:05;28.05;;;17.60;;
6953;SDS011;3516;47.980;8.808;2023-02-28T19:05:32;31.88;;;17.25;;
6953;SDS011;3516;47.980;8.808;2023-02-28T19:07:59;25.85;;;16.98;;
6953;SDS011;3516;47.980;8.808;2023-02-28T19:10:26;28.42;;;17.10;;
6953;SDS011;3516;47.980;8.808;2023-02-28T19:12:53;28.80;;;16.42;;
6953;SDS011;3516;47.980;8.808;2023-02-28T19:15:21;31.40;;;17.55;;
6953;SDS011;3516;47.980;8.808;2023-02-28T19:17:48;36.70;;;18.02;;
6953;SDS011;3516;47.980;8.808;2023-02-28T19:20:17;38.90;;;18.15;;
6953;SDS011;3516;47.980;8.808;2023-02-28T19:22:45;65.30;;;28.42;;
6953;SDS011;3516;47.980;8.808;2023-02-28T19:25:12;69.07;;;30.13;;
6953;SDS011;3516;47.980;8.808;2023-02-28T19:27:39;38.88;;;19.92;;
6953;SDS011;3516;47.980;8.808;2023-02-28T19:30:07;39.42;;;18.45;;
6953;SDS011;3516;47.980;8.808;2023-02-28T19:32:34;39.13;;;20.02;;
6953;SDS011;3516;47.980;8.808;2023-02-28T19:35:01;48.60;;;22.38;;
6953;SDS011;3516;47.980;8.808;2023-02-28T19:37:30;41.40;;;22.42;;
6953;SDS011;3516;47.980;8.808;2023-02-28T19:39:57;44.25;;;21.85;;
6953;SDS011;3516;47.980;8.808;2023-02-28T19:42:24;51.22;;;22.88;;
6953;SDS011;3516;47.980;8.808;2023-02-28T19:44:57;64.30;;;28.67;;
6953;SDS011;3516;47.980;8.808;2023-02-28T19:47:24;62.65;;;27.45;;
6953;SDS011;3516;47.980;8.808;2023-02-28T19:49:51;50.53;;;23.70;;
6953;SDS011;3516;47.980;8.808;2023-02-28T19:52:19;34.97;;;19.30;;
6953;SDS011;3516;47.980;8.808;2023-02-28T19:54:47;32.22;;;18.35;;
6953;SDS011;3516;47.980;8.808;2023-02-28T19:57:15;33.08;;;17.85;;
6953;SDS011;3516;47.980;8.808;2023-02-28T19:59:42;31.75;;;18.30;;
6953;SDS011;3516;47.980;8.808;2023-02-28T20:02:12;40.75;;;21.55;;
6953;SDS011;3516;47.980;8.808;2023-02-28T20:04:39;35.80;;;20.85;;
6953;SDS011;3516;47.980;8.808;2023-02-28T20:07:06;45.97;;;25.92;;
6953;SDS011;3516;47.980;8.808;2023-02-28T20:09:33;37.40;;;22.88;;
6953;SDS011;3516;47.980;8.808;2023-02-28T20:12:02;32.58;;;18.48;;
6953;SDS011;3516;47.980;8.808;2023-02-28T20:14:29;29.73;;;17.25;;
6953;SDS011;3516;47.980;8.808;2023-02-28T20:16:56;27.38;;;16.95;;
6953;SDS011;3516;47.980;8.808;2023-02-28T20:19:23;27.60;;;16.85;;
6953;SDS011;3516;47.980;8.808;2023-02-28T20:21:50;28.98;;;16.90;;
6953;SDS011;3516;47.980;8.808;2023-02-28T20:24:17;27.77;;;16.42;;
6953;SDS011;3516;47.980;8.808;2023-02-28T20:26:44;28.27;;;15.15;;
6953;SDS011;3516;47.980;8.808;2023-02-28T20:29:13;26.20;;;14.82;;
6953;SDS011;3516;47.980;8.808;2023-02-28T20:31:40;27.38;;;15.27;;
6953;SDS011;3516;47.980;8.808;2023-02-28T20:34:07;25.33;;;16.27;;
6953;SDS011;3516;47.980;8.808;2023-02-28T20:36:34;25.60;;;15.00;;
6953;SDS011;3516;47.980;8.808;2023-02-28T20:39:01;23.67;;;15.13;;
6953;SDS011;3516;47.980;8.808;2023-02-28T20:41:28;18.83;;;13.10;;
6953;SDS011;3516;47.980;8.808;2023-02-28T20:43:56;18.35;;;13.25;;
6953;SDS011;3516;47.980;8.808;2023-02-28T20:46:25;17.90;;;12.60;;
6953;SDS011;3516;47.980;8.808;2023-02-28T20:48:52;22.48;;;12.77;;
6953;SDS011;3516;47.980;8.808;2023-02-28T20:51:19;21.08;;;14.05;;
6953;SDS011;3516;47.980;8.808;2023-02-28T20:53:46;20.45;;;13.32;;
6953;SDS011;3516;47.980;8.808;2023-02-28T20:56:14;21.27;;;13.70;;
6953;SDS011;3516;47.980;8.808;2023-02-28T20:58:41;22.02;;;13.38;;
6953;SDS011;3516;47.980;8.808;2023-02-28T21:01:09;25.13;;;13.18;;
6953;SDS011;3516;47.980;8.808;2023-02-28T21:03:41;22.40;;;14.30;;
6953;SDS011;3516;47.980;8.808;2023-02-28T21:06:08;18.42;;;12.48;;
6953;SDS011;3516;47.980;8.808;2023-02-28T21:08:35;21.60;;;14.65;;
6953;SDS011;3516;47.980;8.808;2023-02-28T21:11:05;26.75;;;15.15;;
6953;SDS011;3516;47.980;8.808;2023-02-28T21:13:32;19.35;;;13.23;;
6953;SDS011;3516;47.980;8.808;2023-02-28T21:16:01;21.08;;;14.35;;
6953;SDS011;3516;47.980;8.808;2023-02-28T21:18:28;21.80;;;14.40;;
6953;SDS011;3516;47.980;8.808;2023-02-28T21:21:00;22.75;;;14.25;;
6953;SDS011;3516;47.980;8.808;2023-02-28T21:23:27;20.00;;;13.18;;
6953;SDS011;3516;47.980;8.808;2023-02-28T21:25:57;22.13;;;14.90;;
6953;SDS011;3516;47.980;8.808;2023-02-28T21:28:26;25.48;;;15.25;;
6953;SDS011;3516;47.980;8.808;2023-02-28T21:30:53;26.98;;;16.90;;
6953;SDS011;3516;47.980;8.808;2023-02-28T21:33:20;33.20;;;17.58;;
6953;SDS011;3516;47.980;8.808;2023-02-28T21:35:47;38.67;;;16.02;;
6953;SDS011;3516;47.980;8.808;2023-02-28T21:38:17;23.90;;;15.45;;
6953;SDS011;3516;47.980;8.808;2023-02-28T21:40:44;22.40;;;14.30;;
